Time;durP1;ratioP1;P1;durP2;ratioP2;P2;SDS_P1;SDS_P2;PMS_P1;PMS_P2;Temp;Humidity;BMP_temperature;BMP_pressure;BME280_temperature;BME280_humidity;BME280_pressure;Samples;Min_cycle;Max_cycle;Signal;HPM_P1;HPM_P2
2022/12/30 00:04:20;;;;;;;25.17;6.53;;;19.70;82.90;;;;;;5049425;28;20088;-64
2022/12/30 00:06:47;;;;;;;23.42;6.53;;;19.60;83.10;;;;;;5053438;28;20257;-65
2022/12/30 00:09:14;;;;;;;24.70;10.40;;;19.60;83.50;;;;;;5052302;28;20096;-64
2022/12/30 00:11:40;;;;;;;27.50;16.10;;;19.60;83.70;;;;;;5053009;28;20549;-65
2022/12/30 00:34:14;;;;;;;21.40;6.03;;;19.00;89.60;;;;;;5053300;28;20581;-63
2022/12/30 00:36:40;;;;;;;20.13;6.28;;;18.90;90.10;;;;;;5051839;28;20085;-65
2022/12/30 00:39:07;;;;;;;18.50;5.88;;;18.80;90.70;;;;;;5058555;28;20126;-66
2022/12/30 00:44:18;;;;;;;24.83;7.03;;;18.70;91.90;;;;;;5088810;28;20071;-65
2022/12/30 00:46:45;;;;;;;20.15;7.88;;;18.60;92.30;;;;;;5087091;28;20077;-65
2022/12/30 00:57:26;;;;;;;25.25;7.22;;;18.50;93.60;;;;;;5086141;28;20095;-64
2022/12/30 00:59:52;;;;;;;27.73;7.03;;;18.40;94.20;;;;;;5084540;28;20545;-66
2022/12/30 01:02:19;;;;;;;23.58;7.78;;;18.30;94.50;;;;;;5079843;28;20164;-66
2022/12/30 01:04:45;;;;;;;26.75;7.43;;;18.30;94.80;;;;;;5090497;28;20491;-65
2022/12/30 01:07:12;;;;;;;30.35;9.02;;;18.30;94.90;;;;;;5086204;28;20077;-65
2022/12/30 01:09:38;;;;;;;33.22;10.02;;;18.30;94.90;;;;;;5086808;28;20065;-66
2022/12/30 01:12:08;;;;;;;31.80;11.52;;;18.20;94.90;;;;;;5087280;28;20087;-64
2022/12/30 01:14:48;;;;;;;35.38;12.20;;;18.20;94.90;;;;;;5086907;28;20072;-64
2022/12/30 01:17:26;;;;;;;44.67;16.25;;;18.20;95.20;;;;;;5078372;28;20091;-64
2022/12/30 01:19:53;;;;;;;37.55;15.48;;;18.10;95.10;;;;;;5081774;28;20072;-66
2022/12/30 01:22:19;;;;;;;47.08;16.65;;;18.10;95.30;;;;;;5086616;28;20457;-66
2022/12/30 01:24:45;;;;;;;34.40;15.85;;;18.00;95.40;;;;;;5080132;28;20081;-64
2022/12/30 01:27:12;;;;;;;41.95;17.35;;;18.00;95.40;;;;;;5079916;28;20103;-66
2022/12/30 01:29:41;;;;;;;43.30;16.17;;;17.90;95.50;;;;;;5080520;28;20069;-66
2022/12/30 01:32:13;;;;;;;51.53;15.55;;;17.90;95.70;;;;;;5079770;28;20073;-65
2022/12/30 01:34:40;;;;;;;37.65;14.15;;;17.90;95.60;;;;;;5085825;28;20072;-67
2022/12/30 01:37:07;;;;;;;28.95;13.13;;;17.90;95.80;;;;;;5089849;28;20092;-65
2022/12/30 01:39:34;;;;;;;39.22;12.45;;;17.80;95.90;;;;;;5084187;28;20090;-68
2022/12/30 01:42:02;;;;;;;39.67;12.65;;;17.80;95.90;;;;;;5085338;28;20595;-65
2022/12/30 01:44:49;;;;;;;39.40;13.00;;;17.80;96.00;;;;;;5077233;28;20093;-66
2022/12/30 01:47:32;;;;;;;44.05;14.15;;;17.80;96.10;;;;;;5078159;28;20111;-68
2022/12/30 01:50:26;;;;;;;44.10;13.10;;;17.70;96.30;;;;;;5085453;28;20454;-65
2022/12/30 01:53:19;;;;;;;43.92;14.45;;;17.70;96.80;;;;;;5082914;28;20073;-67
2022/12/30 01:56:09;;;;;;;43.53;13.73;;;17.70;96.70;;;;;;5089654;28;20084;-67
2022/12/30 01:58:52;;;;;;;54.92;17.35;;;17.70;97.20;;;;;;5083434;28;20109;-68
2022/12/30 02:01:20;;;;;;;50.67;16.63;;;17.60;97.90;;;;;;5087035;28;20441;-65
2022/12/30 02:03:54;;;;;;;46.05;14.70;;;17.60;98.40;;;;;;5082978;28;20180;-67
2022/12/30 02:06:27;;;;;;;53.63;16.45;;;17.60;98.80;;;;;;5078880;28;20111;-67
2022/12/30 02:08:54;;;;;;;38.53;14.57;;;17.50;99.20;;;;;;5084888;28;20069;-68
2022/12/30 02:11:21;;;;;;;48.38;16.05;;;17.50;99.90;;;;;;5076538;28;20152;-65
2022/12/30 02:13:47;;;;;;;42.10;15.30;;;17.50;99.90;;;;;;5088289;28;20122;-66
2022/12/30 02:16:26;;;;;;;54.63;17.80;;;17.40;99.90;;;;;;5086890;28;20080;-66
2022/12/30 02:19:18;;;;;;;70.75;23.10;;;17.40;99.90;;;;;;5073505;28;20601;-66
2022/12/30 02:21:44;;;;;;;51.45;22.83;;;17.30;99.90;;;;;;5076497;28;20542;-65
2022/12/30 02:24:19;;;;;;;;;;;17.30;99.90;;;;;;5084678;28;20061;-66
2022/12/30 02:27:08;;;;;;;59.97;20.52;;;17.30;99.90;;;;;;5077500;28;19963;-67
2022/12/30 02:29:55;;;;;;;49.95;21.75;;;17.20;99.90;;;;;;5076839;28;20069;-67
2022/12/30 02:32:43;;;;;;;45.30;19.52;;;17.20;99.90;;;;;;5071546;28;20077;-65
2022/12/30 02:35:46;;;;;;;57.70;20.33;;;17.10;99.90;;;;;;5080216;28;20463;-65
2022/12/30 02:38:22;;;;;;;56.47;19.65;;;17.10;99.90;;;;;;5080343;28;20076;-66
2022/12/30 02:46:44;;;;;;;48.47;18.45;;;17.10;99.90;;;;;;5086846;28;20075;-67
2022/12/30 02:49:12;;;;;;;41.70;17.83;;;17.10;99.90;;;;;;5078100;28;20115;-68
2022/12/30 02:54:24;;;;;;;43.40;16.77;;;17.00;99.90;;;;;;5082196;28;20167;-65
2022/12/30 02:56:52;;;;;;;44.50;17.27;;;16.90;99.90;;;;;;5079867;28;20128;-63
2022/12/30 03:06:06;;;;;;;51.70;19.92;;;16.70;99.90;;;;;;5082907;28;20515;-67
2022/12/30 03:08:46;;;;;;;49.55;18.98;;;16.70;99.90;;;;;;5081328;28;20518;-65
2022/12/30 03:11:16;;;;;;;59.95;20.42;;;16.70;99.90;;;;;;5076411;28;20123;-64
2022/12/30 03:13:49;;;;;;;44.97;19.00;;;16.60;99.90;;;;;;5075436;28;20080;-64
2022/12/30 03:16:23;;;;;;;60.72;19.92;;;16.70;99.90;;;;;;5083582;28;20549;-64
2022/12/30 03:18:50;;;;;;;39.25;18.73;;;16.60;99.90;;;;;;5085597;28;20083;-65
2022/12/30 03:21:18;;;;;;;46.45;18.58;;;16.60;99.90;;;;;;5083967;28;20099;-66
2022/12/30 03:29:28;;;;;;;54.53;16.73;;;16.70;99.90;;;;;;5081456;28;20079;-67
2022/12/30 03:31:55;;;;;;;40.30;16.98;;;16.70;99.90;;;;;;5083448;28;20077;-74
2022/12/30 03:34:24;;;;;;;41.80;15.88;;;16.60;99.90;;;;;;5077127;28;20072;-67
2022/12/30 03:36:57;;;;;;;49.08;16.95;;;16.60;99.90;;;;;;5077630;28;20162;-66
2022/12/30 03:39:35;;;;;;;53.70;17.38;;;16.50;99.90;;;;;;5075783;28;20073;-69
2022/12/30 03:42:04;;;;;;;57.30;18.15;;;16.50;99.90;;;;;;5072387;28;20111;-68
2022/12/30 03:44:32;;;;;;;41.90;16.23;;;16.50;99.90;;;;;;5075967;28;20100;-66
2022/12/30 03:46:59;;;;;;;48.75;16.63;;;16.50;99.90;;;;;;5072054;28;20548;-62
2022/12/30 03:49:25;;;;;;;63.17;19.75;;;16.40;99.90;;;;;;5071117;28;20090;-65
2022/12/30 03:51:52;;;;;;;56.70;20.02;;;16.20;99.90;;;;;;5070689;28;20579;-63
2022/12/30 03:54:18;;;;;;;54.38;19.10;;;16.40;99.90;;;;;;5066082;28;20115;-62
2022/12/30 03:56:45;;;;;;;52.35;18.70;;;16.30;99.90;;;;;;5069386;28;20085;-62
2022/12/30 03:59:11;;;;;;;46.70;20.08;;;16.30;99.90;;;;;;5075338;28;20148;-63
2022/12/30 04:01:37;;;;;;;41.97;19.13;;;16.20;99.90;;;;;;5067458;28;20073;-64
2022/12/30 04:04:04;;;;;;;42.40;19.10;;;16.20;99.90;;;;;;5073109;28;20069;-66
2022/12/30 04:06:30;;;;;;;45.88;20.23;;;16.20;99.90;;;;;;5068351;28;20112;-63
2022/12/30 04:08:57;;;;;;;42.70;19.52;;;16.20;99.90;;;;;;5067038;28;20061;-62
2022/12/30 04:11:23;;;;;;;33.60;18.60;;;16.20;99.90;;;;;;5068452;28;20073;-63
2022/12/30 04:13:51;;;;;;;49.33;19.58;;;16.20;99.90;;;;;;5071497;28;20081;-62
2022/12/30 04:16:18;;;;;;;46.30;19.88;;;16.20;99.90;;;;;;5072399;28;20069;-63
2022/12/30 04:18:44;;;;;;;41.63;19.60;;;16.20;99.90;;;;;;5068254;28;20414;-65
2022/12/30 04:21:11;;;;;;;40.90;19.20;;;16.10;99.90;;;;;;5067240;28;20073;-66
2022/12/30 04:23:37;;;;;;;28.90;14.30;;;16.00;99.90;;;;;;5078980;28;20449;-64
2022/12/30 04:26:04;;;;;;;27.40;13.20;;;16.00;99.90;;;;;;5065669;28;20077;-66
2022/12/30 04:28:30;;;;;;;30.27;14.75;;;16.10;99.90;;;;;;5078161;28;20093;-64
2022/12/30 04:30:56;;;;;;;36.70;14.90;;;16.10;99.90;;;;;;5071235;28;20087;-64
2022/12/30 04:33:23;;;;;;;35.28;15.98;;;16.00;99.90;;;;;;5069092;28;20077;-66
2022/12/30 04:35:49;;;;;;;43.90;15.48;;;16.00;99.90;;;;;;5076604;28;20088;-64
2022/12/30 04:38:16;;;;;;;44.47;17.52;;;16.00;99.90;;;;;;5076852;28;20541;-66
2022/12/30 04:40:42;;;;;;;38.85;16.60;;;16.00;99.90;;;;;;5068261;28;20092;-64
2022/12/30 04:43:08;;;;;;;37.50;17.65;;;16.00;99.90;;;;;;5075281;28;20100;-64
2022/12/30 04:45:35;;;;;;;42.80;18.38;;;16.00;99.90;;;;;;5086537;28;20061;-64
2022/12/30 04:48:02;;;;;;;36.97;18.08;;;15.90;99.90;;;;;;5069267;28;20441;-66
2022/12/30 04:50:28;;;;;;;41.22;18.20;;;15.80;99.90;;;;;;5067991;28;20065;-64
2022/12/30 04:52:54;;;;;;;40.80;18.98;;;15.70;99.90;;;;;;5071427;28;20068;-63
2022/12/30 04:55:21;;;;;;;39.25;18.42;;;15.70;99.90;;;;;;5078778;28;20073;-64
2022/12/30 04:57:47;;;;;;;71.22;37.35;;;15.70;99.90;;;;;;5071209;28;20080;-64
2022/12/30 05:00:14;;;;;;;51.30;19.90;;;15.70;99.90;;;;;;5072286;28;20117;-65
2022/12/30 05:02:40;;;;;;;44.80;20.80;;;15.70;99.90;;;;;;5071381;28;20085;-64
2022/12/30 05:05:07;;;;;;;47.70;20.95;;;15.60;99.90;;;;;;5073388;28;20065;-63
2022/12/30 05:07:34;;;;;;;46.92;22.90;;;15.60;99.90;;;;;;5082289;28;20186;-65
2022/12/30 05:10:01;;;;;;;46.05;21.88;;;15.20;99.90;;;;;;5071389;28;20126;-63
2022/12/30 05:12:27;;;;;;;46.55;21.90;;;15.60;99.90;;;;;;5070660;28;20530;-66
2022/12/30 05:14:53;;;;;;;56.40;22.88;;;15.30;99.90;;;;;;5071422;28;20433;-67
2022/12/30 05:17:20;;;;;;;49.25;22.05;;;15.20;99.90;;;;;;5071151;28;20069;-64
2022/12/30 05:19:46;;;;;;;44.30;21.63;;;15.30;99.90;;;;;;5079129;28;20143;-65
2022/12/30 05:22:13;;;;;;;53.50;21.08;;;15.30;99.90;;;;;;5083103;28;20135;-63
2022/12/30 05:27:24;;;;;;;42.85;22.83;;;15.30;99.90;;;;;;5071686;28;20146;-65
2022/12/30 05:29:50;;;;;;;49.10;23.50;;;15.20;99.90;;;;;;5071035;28;20517;-65
2022/12/30 05:32:16;;;;;;;49.42;22.33;;;15.20;99.90;;;;;;5071901;28;20085;-64
2022/12/30 05:34:43;;;;;;;51.17;23.90;;;15.20;99.90;;;;;;5075373;28;20104;-63
2022/12/30 05:37:09;;;;;;;40.78;21.15;;;15.10;99.90;;;;;;5074608;28;20089;-61
2022/12/30 05:39:36;;;;;;;51.58;24.58;;;15.10;99.90;;;;;;5073571;28;20522;-65
2022/12/30 05:42:02;;;;;;;48.38;23.30;;;15.10;99.90;;;;;;5080848;28;20089;-65
2022/12/30 05:44:29;;;;;;;56.25;24.02;;;15.20;99.90;;;;;;5087852;28;20084;-65
2022/12/30 05:46:55;;;;;;;57.35;22.83;;;15.00;99.90;;;;;;5077431;28;20165;-65
2022/12/30 05:49:22;;;;;;;43.22;22.50;;;15.10;99.90;;;;;;5075876;28;20080;-63
2022/12/30 05:51:48;;;;;;;51.78;21.73;;;15.10;99.90;;;;;;5077852;28;20164;-66
2022/12/30 05:54:14;;;;;;;40.42;21.60;;;15.10;99.90;;;;;;5078922;28;20171;-66
2022/12/30 05:56:41;;;;;;;56.03;26.80;;;15.10;99.90;;;;;;5076552;28;20085;-65
2022/12/30 05:59:09;;;;;;;49.20;23.33;;;15.00;99.90;;;;;;5073797;28;20113;-63
2022/12/30 06:01:36;;;;;;;48.58;22.50;;;15.00;99.90;;;;;;5085421;28;20122;-63
2022/12/30 06:04:03;;;;;;;42.15;20.13;;;14.80;99.90;;;;;;5090290;28;20537;-64
2022/12/30 06:06:29;;;;;;;43.42;19.95;;;15.00;99.90;;;;;;5087982;28;20080;-65
2022/12/30 06:08:56;;;;;;;39.67;17.80;;;15.00;99.90;;;;;;5073591;28;20142;-63
2022/12/30 06:11:22;;;;;;;40.00;18.40;;;15.00;99.90;;;;;;5074773;28;20084;-68
2022/12/30 06:13:49;;;;;;;47.60;18.98;;;15.00;99.90;;;;;;5074185;28;20093;-66
2022/12/30 06:16:15;;;;;;;49.22;19.65;;;15.00;99.90;;;;;;5082678;28;20117;-62
2022/12/30 06:18:41;;;;;;;41.20;18.40;;;14.90;99.90;;;;;;5087809;28;20073;-64
2022/12/30 06:21:08;;;;;;;40.15;16.67;;;14.90;99.90;;;;;;5082206;28;20120;-63
2022/12/30 06:23:34;;;;;;;38.53;14.65;;;14.90;99.90;;;;;;5079441;28;20210;-68
2022/12/30 06:26:01;;;;;;;34.08;15.85;;;14.90;99.90;;;;;;5075174;28;20545;-65
2022/12/30 06:28:28;;;;;;;37.97;14.85;;;15.10;99.90;;;;;;5080804;28;20084;-64
2022/12/30 06:30:55;;;;;;;30.38;13.73;;;14.60;99.90;;;;;;5073283;28;20534;-65
2022/12/30 06:33:23;;;;;;;32.03;15.88;;;15.30;99.90;;;;;;5072210;28;20097;-64
2022/12/30 06:35:50;;;;;;;35.80;16.95;;;15.00;99.90;;;;;;5075278;28;20081;-67
2022/12/30 06:38:16;;;;;;;48.10;18.52;;;15.00;99.90;;;;;;5073092;28;20088;-66
2022/12/30 06:40:44;;;;;;;41.75;18.70;;;15.10;99.90;;;;;;5088049;28;20081;-66
2022/12/30 06:43:11;;;;;;;37.97;18.88;;;15.10;99.90;;;;;;5084871;28;20171;-66
2022/12/30 06:45:37;;;;;;;48.95;21.48;;;15.10;99.90;;;;;;5074389;28;20079;-64
2022/12/30 06:48:04;;;;;;;50.38;21.65;;;14.90;99.90;;;;;;5083598;28;20088;-64
2022/12/30 06:50:31;;;;;;;43.45;21.63;;;14.90;99.90;;;;;;5081145;28;20077;-65
2022/12/30 06:52:58;;;;;;;47.75;23.02;;;14.90;99.90;;;;;;5079804;28;20509;-62
2022/12/30 06:55:24;;;;;;;53.90;22.63;;;14.90;99.90;;;;;;5081925;28;20522;-63
2022/12/30 06:57:51;;;;;;;48.17;22.33;;;14.90;99.90;;;;;;5072518;28;20069;-62
2022/12/30 07:00:18;;;;;;;54.88;25.33;;;14.80;99.90;;;;;;5074281;28;20605;-63
2022/12/30 07:02:44;;;;;;;53.92;25.38;;;14.60;99.90;;;;;;5072785;28;20093;-65
2022/12/30 07:05:10;;;;;;;65.70;30.70;;;14.90;99.90;;;;;;5072747;28;20091;-66
2022/12/30 07:07:37;;;;;;;66.97;31.15;;;14.80;99.90;;;;;;5072658;28;20156;-63
2022/12/30 07:10:04;;;;;;;72.63;32.03;;;14.70;99.90;;;;;;5071689;28;20069;-68
2022/12/30 07:12:30;;;;;;;57.90;31.15;;;14.70;99.90;;;;;;5072759;28;20422;-64
2022/12/30 07:14:57;;;;;;;61.25;30.45;;;14.60;99.90;;;;;;5069106;28;20552;-67
2022/12/30 07:17:23;;;;;;;;;;;14.60;99.90;;;;;;5067913;28;20077;-66
2022/12/30 07:19:49;;;;;;;63.83;31.60;;;14.60;99.90;;;;;;5070061;28;19980;-64
2022/12/30 07:22:16;;;;;;;52.90;24.88;;;14.60;99.90;;;;;;5051650;28;20120;-64
2022/12/30 07:24:43;;;;;;;54.45;27.05;;;14.60;99.90;;;;;;5076291;28;20069;-64
2022/12/30 07:27:13;;;;;;;59.10;26.40;;;14.60;99.90;;;;;;5070620;28;20130;-64
2022/12/30 07:29:39;;;;;;;49.00;24.00;;;14.60;99.90;;;;;;5069126;28;20081;-63
2022/12/30 07:32:07;;;;;;;43.75;24.15;;;14.50;99.90;;;;;;5050206;28;20096;-63
2022/12/30 07:34:40;;;;;;;50.80;24.85;;;14.50;99.90;;;;;;5068897;28;20077;-65
2022/12/30 07:37:06;;;;;;;40.95;23.45;;;14.40;99.90;;;;;;5068483;28;20072;-64
2022/12/30 07:39:33;;;;;;;41.53;23.27;;;14.40;99.90;;;;;;5051520;28;20081;-64
2022/12/30 07:41:59;;;;;;;43.35;22.77;;;14.40;99.90;;;;;;5068691;28;20096;-64
2022/12/30 07:44:25;;;;;;;46.72;23.15;;;14.30;99.90;;;;;;5077154;28;20075;-65
2022/12/30 07:46:51;;;;;;;;;;;14.20;99.90;;;;;;5070792;28;20072;-64
2022/12/30 07:49:18;;;;;;;50.22;22.13;;;14.30;99.90;;;;;;5069322;28;19975;-65
2022/12/30 07:51:44;;;;;;;44.35;23.88;;;14.20;99.90;;;;;;5071569;28;20148;-65
2022/12/30 07:54:11;;;;;;;46.75;23.17;;;13.90;99.90;;;;;;5070065;28;20068;-66
2022/12/30 07:56:37;;;;;;;;;;;14.10;99.90;;;;;;5067263;28;20069;-63
2022/12/30 07:59:03;;;;;;;41.72;20.35;;;14.00;99.90;;;;;;5068803;28;19984;-65
2022/12/30 08:01:30;;;;;;;41.30;19.50;;;14.00;99.90;;;;;;5068776;28;20157;-64
2022/12/30 08:03:56;;;;;;;49.25;21.88;;;14.30;99.90;;;;;;5068752;28;20126;-65
2022/12/30 08:06:22;;;;;;;;;;;13.90;99.90;;;;;;5070035;28;20085;-65
2022/12/30 08:08:49;;;;;;;40.25;21.42;;;14.00;99.90;;;;;;5068171;28;19991;-64
2022/12/30 08:11:15;;;;;;;;;;;14.10;99.90;;;;;;5071865;28;20089;-64
2022/12/30 08:13:43;;;;;;;43.47;22.33;;;14.10;99.90;;;;;;5078421;28;20388;-64
2022/12/30 08:16:11;;;;;;;44.25;21.98;;;14.00;99.90;;;;;;5068902;28;20084;-64
2022/12/30 08:18:38;;;;;;;43.28;21.60;;;13.60;99.90;;;;;;5076742;28;20541;-64
2022/12/30 08:21:11;;;;;;;45.38;23.20;;;13.90;99.90;;;;;;5069365;28;20084;-64
2022/12/30 08:23:38;;;;;;;41.85;21.25;;;14.00;99.90;;;;;;5069549;28;20100;-65
2022/12/30 08:26:10;;;;;;;42.97;22.88;;;13.50;99.90;;;;;;5071238;28;20071;-66
2022/12/30 08:28:37;;;;;;;45.35;22.40;;;13.80;99.90;;;;;;5071945;28;20122;-65
2022/12/30 08:31:18;;;;;;;51.80;23.10;;;13.60;99.90;;;;;;5072376;28;20155;-65
2022/12/30 08:33:45;;;;;;;47.72;22.08;;;13.80;99.90;;;;;;5072336;28;20189;-64
2022/12/30 08:36:14;;;;;;;42.47;21.75;;;12.20;99.90;;;;;;5072411;28;20126;-65
2022/12/30 08:38:44;;;;;;;38.33;21.10;;;13.70;99.90;;;;;;5071520;28;20081;-64
2022/12/30 08:41:15;;;;;;;41.30;19.88;;;13.70;99.90;;;;;;5086137;28;20126;-65
2022/12/30 08:43:42;;;;;;;42.67;20.30;;;13.90;99.90;;;;;;5085946;28;20085;-66
2022/12/30 08:46:09;;;;;;;40.80;20.65;;;14.10;99.90;;;;;;5072282;28;20152;-63
2022/12/30 08:48:36;;;;;;;40.95;19.67;;;14.00;99.90;;;;;;5072479;28;20570;-66
2022/12/30 08:51:03;;;;;;;41.35;20.15;;;13.60;99.90;;;;;;5072670;28;20073;-64
2022/12/30 08:53:29;;;;;;;41.45;21.15;;;13.90;99.90;;;;;;5071674;28;20530;-64
2022/12/30 08:56:10;;;;;;;;;;;13.70;99.90;;;;;;5072695;28;20126;-63
2022/12/30 08:58:37;;;;;;;51.90;22.23;;;13.70;99.90;;;;;;5071457;28;20046;-65
2022/12/30 09:01:10;;;;;;;;;;;13.60;99.90;;;;;;5072621;28;20487;-65
2022/12/30 09:03:38;;;;;;;41.70;20.95;;;13.50;99.90;;;;;;5072391;28;19984;-64
2022/12/30 09:06:05;;;;;;;41.45;19.42;;;13.50;99.90;;;;;;5072144;28;20077;-64
2022/12/30 09:08:38;;;;;;;42.75;21.25;;;13.60;99.90;;;;;;5072499;28;20148;-64
2022/12/30 09:11:16;;;;;;;42.60;23.42;;;13.50;99.90;;;;;;5071632;28;20111;-63
2022/12/30 09:13:43;;;;;;;45.97;23.63;;;13.40;99.90;;;;;;5070791;28;20076;-64
2022/12/30 09:16:16;;;;;;;53.67;22.83;;;13.50;99.90;;;;;;5071089;28;20085;-67
2022/12/30 09:18:43;;;;;;;57.75;26.13;;;13.50;99.90;;;;;;5071191;28;20087;-64
2022/12/30 09:21:09;;;;;;;49.85;24.88;;;13.50;99.90;;;;;;5072033;28;20080;-64
2022/12/30 09:23:36;;;;;;;49.00;25.05;;;13.50;99.90;;;;;;5082864;28;20542;-65
2022/12/30 09:26:04;;;;;;;50.65;25.23;;;13.50;99.90;;;;;;5071395;28;20158;-63
2022/12/30 09:28:31;;;;;;;58.80;24.10;;;13.50;99.90;;;;;;5070285;28;20061;-63
2022/12/30 09:31:00;;;;;;;39.78;22.60;;;13.50;99.90;;;;;;5070596;28;20073;-65
2022/12/30 09:33:27;;;;;;;52.25;26.00;;;13.40;99.90;;;;;;5077783;28;20096;-64
2022/12/30 09:35:54;;;;;;;56.75;26.42;;;13.30;99.90;;;;;;5073415;28;21668;-64
2022/12/30 09:38:20;;;;;;;;;;;13.30;99.90;;;;;;5070019;28;20124;-65
2022/12/30 09:40:52;;;;;;;49.95;24.95;;;13.30;99.90;;;;;;5070835;28;20031;-65
2022/12/30 09:43:37;;;;;;;49.97;25.00;;;13.20;99.90;;;;;;5071783;28;21820;-63
2022/12/30 09:46:29;;;;;;;50.85;25.15;;;13.10;99.90;;;;;;5075388;28;20080;-69
2022/12/30 09:49:03;;;;;;;47.85;26.52;;;13.20;99.90;;;;;;5081838;28;20085;-63
2022/12/30 09:51:44;;;;;;;54.15;26.65;;;13.20;99.90;;;;;;5070053;28;20135;-65
2022/12/30 09:54:20;;;;;;;57.15;27.77;;;13.30;99.90;;;;;;5070955;28;20072;-64
2022/12/30 09:56:48;;;;;;;56.35;27.40;;;13.30;99.90;;;;;;5071294;28;20177;-65
2022/12/30 09:59:18;;;;;;;55.40;27.35;;;13.20;99.90;;;;;;5070507;28;20569;-65
2022/12/30 10:01:51;;;;;;;54.33;26.60;;;13.20;99.90;;;;;;5071185;28;20138;-64
2022/12/30 10:04:19;;;;;;;52.28;30.52;;;13.20;99.90;;;;;;5069971;28;20093;-65
2022/12/30 10:07:02;;;;;;;58.95;28.88;;;13.20;99.90;;;;;;5070586;28;20104;-66
2022/12/30 10:09:48;;;;;;;61.40;29.63;;;13.20;99.90;;;;;;5069715;28;20080;-65
2022/12/30 10:12:14;;;;;;;66.32;30.27;;;13.10;99.90;;;;;;5070199;28;20584;-64
2022/12/30 10:14:53;;;;;;;;;;;13.10;99.90;;;;;;5070320;28;20096;-65
2022/12/30 10:17:27;;;;;;;65.82;31.45;;;13.10;99.90;;;;;;5071123;28;19957;-65
2022/12/30 10:20:19;;;;;;;76.78;40.50;;;13.10;99.90;;;;;;5070698;28;20084;-68
2022/12/30 10:22:52;;;;;;;89.93;43.55;;;13.00;99.90;;;;;;5079908;28;20219;-65
2022/12/30 10:25:39;;;;;;;85.03;42.83;;;12.90;99.90;;;;;;5083280;28;20065;-63
2022/12/30 10:28:10;;;;;;;93.47;48.92;;;13.00;99.90;;;;;;5086548;28;20064;-64
2022/12/30 10:30:43;;;;;;;88.15;46.40;;;13.00;99.90;;;;;;5080887;28;20068;-63
2022/12/30 10:33:18;;;;;;;112.00;53.00;;;13.00;99.90;;;;;;5079790;28;20078;-66
2022/12/30 10:35:48;;;;;;;111.10;55.03;;;13.00;99.90;;;;;;5080705;28;20082;-64
2022/12/30 10:38:18;;;;;;;100.53;53.92;;;12.90;99.90;;;;;;5089121;28;20080;-64
2022/12/30 10:41:00;;;;;;;110.22;56.00;;;12.90;99.90;;;;;;5071226;28;20085;-64
2022/12/30 10:43:33;;;;;;;116.45;61.15;;;12.90;99.90;;;;;;5086116;28;20167;-62
2022/12/30 10:46:25;;;;;;;118.05;60.45;;;12.90;99.90;;;;;;5074142;28;20080;-64
2022/12/30 10:49:09;;;;;;;123.28;61.72;;;12.90;99.90;;;;;;5071050;28;20117;-65
2022/12/30 10:51:35;;;;;;;120.22;63.70;;;12.90;99.90;;;;;;5069906;28;20077;-66
2022/12/30 10:54:02;;;;;;;;;;;12.80;99.90;;;;;;5070098;28;20457;-65
2022/12/30 10:56:33;;;;;;;109.90;59.20;;;12.80;99.90;;;;;;5069619;28;19993;-65
2022/12/30 10:59:05;;;;;;;119.43;68.50;;;12.80;99.90;;;;;;5068453;28;20119;-65
2022/12/30 11:01:35;;;;;;;102.55;56.00;;;12.70;99.90;;;;;;5069501;28;20442;-64
2022/12/30 11:04:02;;;;;;;93.55;52.88;;;12.80;99.90;;;;;;5068856;28;20100;-64
2022/12/30 11:06:35;;;;;;;100.20;54.15;;;12.70;99.90;;;;;;5069875;28;20085;-67
2022/12/30 11:09:13;;;;;;;106.93;58.15;;;12.70;99.90;;;;;;5070220;28;20148;-64
2022/12/30 11:14:58;;;;;;;100.60;58.67;;;12.80;99.90;;;;;;5068909;28;20076;-66
2022/12/30 11:17:28;;;;;;;100.78;56.30;;;12.90;99.90;;;;;;5069826;28;20077;-63
2022/12/30 11:20:05;;;;;;;99.20;53.47;;;12.80;99.90;;;;;;5069421;28;20065;-68
2022/12/30 11:22:32;;;;;;;96.80;54.85;;;12.80;99.90;;;;;;5068980;28;20157;-65
2022/12/30 11:25:03;;;;;;;104.32;55.75;;;12.60;99.90;;;;;;5070409;28;20096;-66
2022/12/30 11:27:42;;;;;;;103.43;56.60;;;12.70;99.90;;;;;;5069339;28;20518;-64
2022/12/30 11:30:31;;;;;;;109.55;55.97;;;12.70;99.90;;;;;;5068987;28;20077;-65
2022/12/30 11:33:00;;;;;;;124.75;56.33;;;12.70;99.90;;;;;;5069253;28;20084;-66
2022/12/30 11:35:39;;;;;;;116.80;54.08;;;12.80;99.90;;;;;;5068958;28;20069;-64
2022/12/30 11:38:26;;;;;;;125.82;47.85;;;12.80;99.90;;;;;;5068910;28;20152;-66
2022/12/30 11:40:52;;;;;;;75.38;38.70;;;12.80;99.90;;;;;;5068512;28;20522;-65
2022/12/30 11:43:20;;;;;;;87.28;40.72;;;12.80;99.90;;;;;;5078023;28;20128;-66
2022/12/30 11:45:49;;;;;;;79.57;35.83;;;12.80;99.90;;;;;;5068823;28;20111;-66
2022/12/30 11:48:33;;;;;;;78.30;36.47;;;12.80;99.90;;;;;;5076409;28;20100;-65
2022/12/30 11:51:03;;;;;;;105.35;37.72;;;12.80;99.90;;;;;;5068844;28;20119;-65
2022/12/30 11:53:35;;;;;;;95.97;39.30;;;12.80;99.90;;;;;;5069298;28;20073;-65
2022/12/30 11:56:02;;;;;;;82.65;36.38;;;12.80;99.90;;;;;;5069081;28;20548;-64
2022/12/30 11:58:34;;;;;;;116.28;39.17;;;12.80;99.90;;;;;;5067660;28;20105;-64
2022/12/30 12:01:09;;;;;;;161.68;39.88;;;12.90;99.90;;;;;;5067944;28;20114;-63
2022/12/30 12:03:51;;;;;;;119.72;43.05;;;12.90;99.90;;;;;;5069301;28;20714;-67
2022/12/30 12:06:18;;;;;;;104.20;38.60;;;13.00;99.90;;;;;;5068296;28;20097;-64
2022/12/30 12:09:14;;;;;;;106.20;40.25;;;12.90;99.90;;;;;;5068954;28;20069;-66
2022/12/30 12:11:45;;;;;;;94.32;38.22;;;12.90;99.90;;;;;;5073499;28;20469;-64
2022/12/30 12:14:33;;;;;;;96.88;41.97;;;12.90;99.90;;;;;;5069395;28;20160;-65
2022/12/30 12:17:12;;;;;;;70.88;34.55;;;13.00;99.90;;;;;;5067738;28;20534;-70
2022/12/30 12:19:58;;;;;;;57.92;28.30;;;13.00;99.90;;;;;;5069440;28;20104;-64
2022/12/30 12:22:55;;;;;;;65.82;26.70;;;13.00;99.90;;;;;;5068367;28;20092;-64
2022/12/30 12:25:26;;;;;;;64.15;28.50;;;13.00;99.90;;;;;;5058904;28;20074;-66
2022/12/30 12:27:53;;;;;;;64.03;24.50;;;13.00;99.90;;;;;;5068140;28;20158;-63
2022/12/30 12:30:20;;;;;;;128.05;32.60;;;13.00;99.90;;;;;;5068840;28;20148;-65
2022/12/30 12:33:04;;;;;;;63.53;29.27;;;13.00;99.90;;;;;;5068611;28;20112;-64
2022/12/30 12:35:36;;;;;;;38.75;23.02;;;13.10;99.90;;;;;;5079332;28;20077;-64
2022/12/30 12:38:21;;;;;;;174.88;40.30;;;13.10;99.90;;;;;;5067668;28;20139;-68
2022/12/30 12:41:22;;;;;;;186.77;36.97;;;13.10;99.90;;;;;;5068703;28;20112;-64
2022/12/30 12:44:13;;;;;;;72.85;32.58;;;13.10;99.90;;;;;;5034004;28;20255;-64
2022/12/30 12:47:04;;;;;;;67.57;34.72;;;13.10;99.90;;;;;;5070073;28;21706;-66
2022/12/30 12:49:58;;;;;;;133.40;33.80;;;13.10;99.90;;;;;;5078107;28;20159;-66
2022/12/30 12:52:54;;;;;;;74.85;34.83;;;13.10;99.90;;;;;;5067934;28;20061;-63
2022/12/30 12:55:50;;;;;;;49.25;30.33;;;13.10;99.90;;;;;;5055770;28;20080;-65
2022/12/30 12:58:30;;;;;;;56.28;30.42;;;13.10;99.90;;;;;;5068612;28;20089;-65
2022/12/30 13:01:36;;;;;;;64.18;29.23;;;13.10;99.90;;;;;;5068325;28;20425;-64
2022/12/30 13:04:27;;;;;;;60.97;28.92;;;13.20;99.90;;;;;;5068815;28;20167;-64
2022/12/30 13:07:27;;;;;;;54.05;27.33;;;13.20;99.90;;;;;;5067777;28;20073;-64
2022/12/30 13:10:34;;;;;;;59.92;25.45;;;13.10;99.90;;;;;;5068957;28;20438;-65
2022/12/30 13:13:08;;;;;;;65.60;26.10;;;13.20;99.90;;;;;;5062375;28;20172;-66
2022/12/30 13:16:09;;;;;;;70.18;27.75;;;13.20;99.90;;;;;;5072136;28;20080;-66
2022/12/30 13:18:38;;;;;;;76.97;29.05;;;13.10;99.90;;;;;;5063401;28;20114;-68
2022/12/30 13:21:08;;;;;;;64.75;30.42;;;13.10;99.90;;;;;;5082252;28;20192;-64
2022/12/30 13:23:52;;;;;;;86.38;31.63;;;13.10;99.90;;;;;;5071325;28;20085;-65
2022/12/30 13:26:23;;;;;;;61.20;30.13;;;13.10;99.90;;;;;;5070321;28;20069;-66
2022/12/30 13:28:54;;;;;;;59.20;22.52;;;13.10;99.90;;;;;;5071440;28;20097;-63
2022/12/30 13:31:38;;;;;;;59.60;25.23;;;13.20;99.90;;;;;;5071917;28;20065;-65
2022/12/30 13:34:29;;;;;;;64.30;27.23;;;13.20;99.90;;;;;;5071015;28;20096;-65
2022/12/30 13:37:22;;;;;;;58.65;27.35;;;13.10;99.90;;;;;;5071544;28;20565;-64
2022/12/30 13:39:54;;;;;;;52.10;27.45;;;13.20;99.90;;;;;;5072066;28;20134;-64
2022/12/30 13:42:55;;;;;;;79.93;27.48;;;13.20;99.90;;;;;;5076420;28;20176;-65
2022/12/30 13:45:23;;;;;;;70.15;29.27;;;13.10;99.90;;;;;;5073052;28;20077;-65
2022/12/30 13:48:12;;;;;;;39.92;25.30;;;13.10;99.90;;;;;;5070218;28;20216;-68
2022/12/30 13:50:41;;;;;;;64.53;30.88;;;13.10;99.90;;;;;;5070845;28;21558;-64
2022/12/30 13:53:33;;;;;;;50.30;29.00;;;13.00;99.90;;;;;;5070512;28;20080;-64
2022/12/30 13:56:00;;;;;;;60.15;29.95;;;13.10;99.90;;;;;;5071058;28;21614;-64